AQQ10 IFIS: Internet Flight Information System
logo dgac
Miércoles 19 de Junio del 2024
Buscar por aerodromo o helipuerto
Ingrese nombre de aeródromo, localidad o designador OACI:
METAR del 18-06-2024 a las 22:00 UTC
Para mayor información visite www.meteochile.gob.cl
METAR SCPD 182200Z 01010KT 340V040 4000 RA BKN020 OVC040 10/08 Q1016
Viento: dirección 010 grados, velocidad 10 nudos
Viento con dirección variable entre 340 y 040 grados
Visibilidad: 4000 metros
Lluvia
Nubes: Nublado a 2000 pies sobre el nivel del aeródromo
Nubes: Cubierto a 4000 pies sobre el nivel del aeródromo
Temperatura: 10 °C
Rocío: 8 °C
Humedad_relativa: 87%
Presión: 1016 hPa
METAR del 18-06-2024 a las 21:00 UTC
Para mayor información visite www.meteochile.gob.cl
METAR SCPD 182100Z 30016KT 3500 +RA SCT020 OVC040 10/08 Q1014
Viento: dirección 300 grados, velocidad 16 nudos
Visibilidad: 3500 metros
Fuertes Lluvia
Nubes: Nubosidad parcial a 2000 pies sobre el nivel del aeródromo
Nubes: Cubierto a 4000 pies sobre el nivel del aeródromo
Temperatura: 10 °C
Rocío: 8 °C
Humedad_relativa: 87%
Presión: 1014 hPa
SPECI del 18-06-2024 a las 20:39 UTC
Para mayor información visite www.meteochile.gob.cl
SPECI SCPD 182039Z 30016G26KT 5000 RA OVC030 11/08 Q1013
Viento: dirección 300 grados, velocidad 16 nudos, con ráfagas de velocidad máxima de 26Nudos
Visibilidad: 5000 metros
Lluvia
Nubes: Cubierto a 3000 pies sobre el nivel del aeródromo
Temperatura: 11 °C
Rocío: 8 °C
Humedad_relativa: 82%
Presión: 1013 hPa
METAR del 18-06-2024 a las 20:00 UTC
Para mayor información visite www.meteochile.gob.cl
METAR SCPD 182000Z 34014KT 8000 -RA BKN040 OVC080 14/07 Q1012
Viento: dirección 340 grados, velocidad 14 nudos
Visibilidad: 8000 metros
Débil Lluvia
Nubes: Nublado a 4000 pies sobre el nivel del aeródromo
Nubes: Cubierto a 8000 pies sobre el nivel del aeródromo
Temperatura: 14 °C
Rocío: 7 °C
Humedad_relativa: 63%
Presión: 1012 hPa
METAR del 18-06-2024 a las 19:00 UTC
Para mayor información visite www.meteochile.gob.cl
METAR SCPD 181900Z 33012KT 9999 FEW030 BKN050 OVC100 13/08 Q1012
Viento: dirección 330 grados, velocidad 12 nudos
Visibilidad: 10 km o más
Nubes: Escasa nubosidad a 3000 pies sobre el nivel del aeródromo
Nubes: Nublado a 5000 pies sobre el nivel del aeródromo
Nubes: Cubierto a 10000 pies sobre el nivel del aeródromo
Temperatura: 13 °C
Rocío: 8 °C
Humedad_relativa: 72%
Presión: 1012 hPa
METAR del 18-06-2024 a las 18:00 UTC
Para mayor información visite www.meteochile.gob.cl
METAR SCPD 181800Z 32013KT 9999 BKN060 OVC100 13/08 Q1012
Viento: dirección 320 grados, velocidad 13 nudos
Visibilidad: 10 km o más
Nubes: Nublado a 6000 pies sobre el nivel del aeródromo
Nubes: Cubierto a 10000 pies sobre el nivel del aeródromo
Temperatura: 13 °C
Rocío: 8 °C
Humedad_relativa: 72%
Presión: 1012 hPa
METAR del 18-06-2024 a las 17:00 UTC
Para mayor información visite www.meteochile.gob.cl
METAR SCPD 181700Z 31014KT 9999 SCT060 OVC100 14/08 Q1013
Viento: dirección 310 grados, velocidad 14 nudos
Visibilidad: 10 km o más
Nubes: Nubosidad parcial a 6000 pies sobre el nivel del aeródromo
Nubes: Cubierto a 10000 pies sobre el nivel del aeródromo
Temperatura: 14 °C
Rocío: 8 °C
Humedad_relativa: 67%
Presión: 1013 hPa
METAR del 18-06-2024 a las 16:00 UTC
Para mayor información visite www.meteochile.gob.cl
METAR SCPD 181600Z 31011KT 9999 SCT060 BKN100 14/07 Q1013
Viento: dirección 310 grados, velocidad 11 nudos
Visibilidad: 10 km o más
Nubes: Nubosidad parcial a 6000 pies sobre el nivel del aeródromo
Nubes: Nublado a 10000 pies sobre el nivel del aeródromo
Temperatura: 14 °C
Rocío: 7 °C
Humedad_relativa: 63%
Presión: 1013 hPa
METAR del 18-06-2024 a las 15:00 UTC
Para mayor información visite www.meteochile.gob.cl
METAR SCPD 181500Z 31007KT 9999 SCT050 BKN080 12/08 Q1013
Viento: dirección 310 grados, velocidad 7 nudos
Visibilidad: 10 km o más
Nubes: Nubosidad parcial a 5000 pies sobre el nivel del aeródromo
Nubes: Nublado a 8000 pies sobre el nivel del aeródromo
Temperatura: 12 °C
Rocío: 8 °C
Humedad_relativa: 77%
Presión: 1013 hPa
METAR del 18-06-2024 a las 14:00 UTC
Para mayor información visite www.meteochile.gob.cl
METAR SCPD 181400Z 03004KT 9999 SCT050 BKN080 10/07 Q1014
Viento: dirección 030 grados, velocidad 4 nudos
Visibilidad: 10 km o más
Nubes: Nubosidad parcial a 5000 pies sobre el nivel del aeródromo
Nubes: Nublado a 8000 pies sobre el nivel del aeródromo
Temperatura: 10 °C
Rocío: 7 °C
Humedad_relativa: 82%
Presión: 1014 hPa